Photometre #644[NE_1.6] AgiaMarina_Xyliatou AOT

File : 20220924_644.hum

24/09/2022,04:20:59,TEMP=19.6,BA=5.64,STAT.A=13.0,ExtBa=13.02
24/09/2022,04:24:07,TEMP=20.1,BA=5.64,STAT.A=12.5,ExtBa=12.87
24/09/2022,04:27:45,TEMP=20.7,BA=5.64,STAT.A=12.5,ExtBa=12.83
24/09/2022,04:32:06,TEMP=21.5,BA=5.40,STAT.A=11.5,ExtBa=12.83
24/09/2022,04:37:20,TEMP=20.9,BA=5.40,STAT.A=13.0,ExtBa=12.88
24/09/2022,04:43:46,TEMP=20.8,BA=5.60,STAT.A=13.0,ExtBa=12.92
24/09/2022,04:51:58,TEMP=20.8,BA=5.60,STAT.B=13.0,ExtBa=12.89
24/09/2022,04:55:49,TEMP=20.7,BA=5.60,STAT.A=13.0,ExtBa=12.86
24/09/2022,05:00:09,TEMP=20.6,BA=5.48,STAT.A=13.0,ExtBa=12.86
24/09/2022,05:05:02,TEMP=20.4,BA=5.48,STAT.A=13.0,ExtBa=12.87
24/09/2022,05:10:33,TEMP=20.4,BA=5.64,STAT.A=13.0,ExtBa=12.88
24/09/2022,05:16:54,TEMP=20.5,BA=5.64,STAT.C=13.0,ExtBa=12.91
24/09/2022,05:30:47,TEMP=22.2,BA=5.48,STAT.A=12.5,ExtBa=12.86
24/09/2022,05:32:56,TEMP=22.7,BA=5.48,STAT.A=12.5,ExtBa=12.99
24/09/2022,05:43:13,TEMP=23.6,BA=5.64,STAT.A=13.0,ExtBa=13.60
24/09/2022,05:55:44,TEMP=24.9,BA=5.64,STAT.A=13.0,ExtBa=13.75
24/09/2022,06:11:25,TEMP=26.1,BA=5.64,STAT.B=13.0,ExtBa=13.82
24/09/2022,06:25:27,TEMP=26.7,BA=5.64,STAT.D=13.5,ExtBa=13.79
24/09/2022,06:40:29,TEMP=27.1,BA=5.64,STAT.F,ExtBa=13.90
24/09/2022,06:55:29,TEMP=28.5,BA=5.52,STAT.D=13.0,ExtBa=13.45
24/09/2022,07:10:29,TEMP=27.5,BA=5.64,STAT.D=13.5,ExtBa=13.60
24/09/2022,07:25:28,TEMP=27.1,BA=5.64,STAT.D=13.5,ExtBa=14.07
24/09/2022,07:40:31,TEMP=27.9,BA=5.64,STAT.F,ExtBa=14.26
24/09/2022,07:55:29,TEMP=28.7,BA=5.52,STAT.D=13.5,ExtBa=13.97
24/09/2022,08:10:29,TEMP=29.5,BA=5.64,STAT.D=13.5,ExtBa=14.52
24/09/2022,08:25:30,TEMP=29.8,BA=5.64,STAT.D=13.5,ExtBa=14.61
24/09/2022,08:40:32,TEMP=29.3,BA=5.64,STAT.F,ExtBa=14.62
24/09/2022,08:55:30,TEMP=30.2,BA=5.64,STAT.D=13.5,ExtBa=14.61
24/09/2022,09:10:30,TEMP=30.6,BA=5.60,STAT.D=13.5,ExtBa=14.59
24/09/2022,09:25:30,TEMP=30.0,BA=5.60,STAT.D=13.5,ExtBa=14.59
24/09/2022,09:40:31,TEMP=29.6,BA=5.60,STAT.F,ExtBa=14.57
24/09/2022,09:55:30,TEMP=31.2,BA=5.56,STAT.D=13.5,ExtBa=14.56
24/09/2022,10:10:30,TEMP=30.5,BA=5.56,STAT.D=14.0,ExtBa=14.59
24/09/2022,10:25:30,TEMP=30.2,BA=5.52,STAT.D=14.0,ExtBa=14.37
24/09/2022,10:40:31,TEMP=30.9,BA=5.56,STAT.F,ExtBa=14.52
24/09/2022,10:55:29,TEMP=30.5,BA=5.52,STAT.D=13.5,ExtBa=14.49
24/09/2022,11:10:30,TEMP=30.4,BA=5.56,STAT.D=13.5,ExtBa=14.48
24/09/2022,11:25:29,TEMP=30.6,BA=5.52,STAT.D=13.5,ExtBa=14.45
24/09/2022,11:40:32,TEMP=29.7,BA=5.52,STAT.F,ExtBa=14.44
24/09/2022,11:55:29,TEMP=29.6,BA=5.44,STAT.D=13.5,ExtBa=13.92
24/09/2022,12:10:30,TEMP=29.4,BA=5.52,STAT.D=13.5,ExtBa=14.42
24/09/2022,12:25:29,TEMP=29.0,BA=5.52,STAT.D=13.5,ExtBa=14.40
24/09/2022,12:40:31,TEMP=29.6,BA=5.52,STAT.F,ExtBa=14.36
24/09/2022,12:55:29,TEMP=29.0,BA=5.44,STAT.D=13.5,ExtBa=13.53
24/09/2022,13:09:34,TEMP=28.2,BA=5.52,STAT.B=13.5,ExtBa=14.31
24/09/2022,13:25:15,TEMP=28.7,BA=5.52,STAT.A=13.5,ExtBa=14.10
24/09/2022,13:37:49,TEMP=28.1,BA=5.52,STAT.A=13.5,ExtBa=14.24
24/09/2022,13:48:05,TEMP=28.3,BA=5.52,STAT.A=13.5,ExtBa=14.21
24/09/2022,13:56:41,TEMP=28.0,BA=5.52,STAT.A=13.5,ExtBa=14.19
24/09/2022,14:04:04,TEMP=27.8,BA=5.56,STAT.C=13.5,ExtBa=14.15
24/09/2022,14:18:02,TEMP=27.7,BA=5.40,STAT.A=13.5,ExtBa=13.13
24/09/2022,14:19:54,TEMP=27.8,BA=5.40,STAT.A=13.0,ExtBa=13.18
24/09/2022,14:21:46,TEMP=27.7,BA=5.40,STAT.A=13.0,ExtBa=13.18
24/09/2022,14:25:10,TEMP=27.3,BA=5.40,STAT.A=13.5,ExtBa=13.24
24/09/2022,14:29:04,TEMP=27.3,BA=5.40,STAT.B=13.5,ExtBa=13.25
24/09/2022,14:37:53,TEMP=26.9,BA=5.40,STAT.A=13.5,ExtBa=13.08
24/09/2022,14:43:38,TEMP=26.4,BA=5.52,STAT.A=13.5,ExtBa=13.18
24/09/2022,14:45:08,TEMP=26.6,BA=5.52,STAT.b=13.5
24/09/2022,14:56:56,TEMP=25.5,BA=5.44,STAT.A=13.5,ExtBa=13.17
24/09/2022,14:58:49,TEMP=25.7,BA=5.44,STAT.A=13.0,ExtBa=13.06
24/09/2022,15:00:41,TEMP=25.7,BA=5.40,STAT.A=13.0,ExtBa=13.04
24/09/2022,15:02:35,TEMP=25.7,BA=5.40,STAT.A=13.0,ExtBa=13.03